createdAt,value
2022-08-29T00:01:01.663Z,16.29
2022-08-29T00:02:05.406Z,16.36
2022-08-29T00:03:08.832Z,16.26
2022-08-29T00:04:11.278Z,16.13
2022-08-29T00:05:13.762Z,16.22
2022-08-29T00:06:16.182Z,16.27
2022-08-29T00:07:18.730Z,16.23
2022-08-29T00:08:21.348Z,16.18
2022-08-29T00:09:23.612Z,16.24
2022-08-29T00:10:27.308Z,16.17
2022-08-29T00:11:30.034Z,16.21
2022-08-29T00:12:32.430Z,16.13
2022-08-29T00:13:35.314Z,16.03
2022-08-29T00:14:37.618Z,16.04
2022-08-29T00:15:44.382Z,16.10
2022-08-29T00:16:47.538Z,16.15
2022-08-29T00:17:50.950Z,16.04
2022-08-29T00:18:53.235Z,16.01
2022-08-29T00:19:55.484Z,15.89
2022-08-29T00:20:57.782Z,15.83
2022-08-29T00:22:00.159Z,15.81
2022-08-29T00:23:04.595Z,15.85
2022-08-29T00:24:07.330Z,15.89
2022-08-29T00:25:12.754Z,15.79
2022-08-29T00:26:15.017Z,15.85
2022-08-29T00:27:17.322Z,15.83
2022-08-29T00:28:19.563Z,15.80
2022-08-29T00:29:21.848Z,15.79
2022-08-29T00:30:25.247Z,15.92
2022-08-29T00:31:28.226Z,15.83
2022-08-29T00:32:34.998Z,15.86
2022-08-29T00:33:39.274Z,15.93
2022-08-29T00:34:41.759Z,15.98
2022-08-29T00:35:45.199Z,15.97
2022-08-29T00:36:49.331Z,16.00
2022-08-29T00:37:54.570Z,15.86
2022-08-29T00:38:57.217Z,15.69
2022-08-29T00:40:01.497Z,15.71
2022-08-29T00:41:04.588Z,15.63
2022-08-29T00:42:07.082Z,15.71
2022-08-29T00:43:10.424Z,15.78
2022-08-29T00:44:12.817Z,15.90
2022-08-29T00:45:17.690Z,15.74
2022-08-29T00:46:28.622Z,15.67
2022-08-29T00:47:34.275Z,15.74
2022-08-29T00:48:39.057Z,15.69
2022-08-29T00:49:42.768Z,15.68
2022-08-29T00:50:59.169Z,15.62
2022-08-29T00:52:11.053Z,15.64
2022-08-29T00:53:16.889Z,15.64
2022-08-29T00:54:19.444Z,15.73
2022-08-29T00:55:25.522Z,15.83
2022-08-29T00:56:29.550Z,15.91
2022-08-29T00:57:32.524Z,16.01
2022-08-29T00:58:49.980Z,16.01
2022-08-29T00:59:52.838Z,16.00
2022-08-29T01:00:55.255Z,15.98
2022-08-29T01:01:58.305Z,15.96
2022-08-29T01:03:00.670Z,16.03
2022-08-29T01:04:03.597Z,15.98
2022-08-29T01:05:13.081Z,16.04
2022-08-29T01:06:15.648Z,16.00
2022-08-29T01:07:17.994Z,16.07
2022-08-29T01:08:20.433Z,16.03
2022-08-29T01:09:25.057Z,16.07
2022-08-29T01:10:46.313Z,16.00
2022-08-29T01:12:07.288Z,15.96
2022-08-29T01:13:11.425Z,15.97
2022-08-29T01:14:15.273Z,16.00
2022-08-29T01:15:17.974Z,16.04
2022-08-29T01:16:22.699Z,16.02
2022-08-29T01:17:30.914Z,16.05
2022-08-29T01:18:36.713Z,16.03
2022-08-29T01:19:54.641Z,16.05
2022-08-29T01:21:05.853Z,16.04
2022-08-29T01:22:34.920Z,15.95
2022-08-29T01:23:47.628Z,15.88
2022-08-29T01:24:52.508Z,15.85
2022-08-29T01:25:56.059Z,15.85
2022-08-29T01:26:58.345Z,15.76
2022-08-29T01:28:18.100Z,15.79
2022-08-29T01:29:20.406Z,15.77
2022-08-29T01:30:22.743Z,15.76
2022-08-29T01:31:51.472Z,15.62
2022-08-29T01:32:58.522Z,15.66
2022-08-29T01:34:00.712Z,15.48
2022-08-29T01:35:05.510Z,15.55
2022-08-29T01:36:10.648Z,15.60
2022-08-29T01:37:14.835Z,15.54
2022-08-29T01:38:27.503Z,15.47
2022-08-29T01:39:35.774Z,15.36
2022-08-29T01:40:38.198Z,15.47
2022-08-29T01:41:42.105Z,15.56
2022-08-29T01:42:44.436Z,15.58
2022-08-29T01:43:49.714Z,15.60
2022-08-29T01:44:58.397Z,15.54
2022-08-29T01:46:00.900Z,15.54
2022-08-29T01:47:05.369Z,15.52
2022-08-29T01:48:08.019Z,15.57
2022-08-29T01:49:11.487Z,15.61
2022-08-29T01:50:15.574Z,15.60
2022-08-29T01:51:18.745Z,15.52
2022-08-29T01:52:21.429Z,15.45
2022-08-29T01:53:24.203Z,15.34
2022-08-29T01:54:27.068Z,15.38
2022-08-29T01:55:29.433Z,15.23
2022-08-29T01:56:34.439Z,15.28
2022-08-29T01:57:38.757Z,15.23
2022-08-29T01:58:42.119Z,15.30
2022-08-29T01:59:45.457Z,15.22
2022-08-29T02:00:47.800Z,15.32
2022-08-29T02:02:19.877Z,15.39
2022-08-29T02:03:22.174Z,15.41
2022-08-29T02:04:24.412Z,15.48
2022-08-29T02:05:30.523Z,15.54
2022-08-29T02:06:33.946Z,15.58
2022-08-29T02:07:36.191Z,15.53
2022-08-29T02:08:39.812Z,15.41
2022-08-29T02:09:45.595Z,15.35
2022-08-29T02:10:48.193Z,15.35
2022-08-29T02:11:50.472Z,15.36
2022-08-29T02:12:54.182Z,15.46
2022-08-29T02:13:58.371Z,15.46
2022-08-29T02:15:01.098Z,15.49
2022-08-29T02:16:04.105Z,15.51
2022-08-29T02:17:08.010Z,15.50
2022-08-29T02:18:10.527Z,15.41
2022-08-29T02:19:12.760Z,15.31
2022-08-29T02:20:15.289Z,15.31
2022-08-29T02:21:19.667Z,15.27
2022-08-29T02:22:22.706Z,15.18
2022-08-29T02:23:31.042Z,15.25
2022-08-29T02:24:33.954Z,15.36
2022-08-29T02:25:42.229Z,15.28
2022-08-29T02:26:44.791Z,15.24
2022-08-29T02:27:47.045Z,15.21
2022-08-29T02:28:50.533Z,15.19
2022-08-29T02:29:53.039Z,15.02
2022-08-29T02:30:56.913Z,15.12
2022-08-29T02:31:59.420Z,15.07
2022-08-29T02:33:04.099Z,15.00
2022-08-29T02:34:08.885Z,14.92
2022-08-29T02:35:14.838Z,14.87
2022-08-29T02:36:19.670Z,14.84
2022-08-29T02:37:22.077Z,14.84
2022-08-29T02:38:25.183Z,14.76
2022-08-29T02:39:27.471Z,14.78
2022-08-29T02:40:31.477Z,14.84
2022-08-29T02:41:34.336Z,14.73
2022-08-29T02:42:36.647Z,14.70
2022-08-29T02:43:38.969Z,14.83
2022-08-29T02:44:41.186Z,14.86
2022-08-29T02:45:43.974Z,14.91
2022-08-29T02:46:46.385Z,14.90
2022-08-29T02:47:48.857Z,14.83
2022-08-29T02:48:58.221Z,14.75
2022-08-29T02:50:10.087Z,14.76
2022-08-29T02:51:23.153Z,14.69
2022-08-29T02:52:25.273Z,14.76
2022-08-29T02:53:33.937Z,14.67
2022-08-29T02:54:36.197Z,14.70
2022-08-29T02:55:38.850Z,14.68
2022-08-29T02:56:41.995Z,14.74
2022-08-29T02:57:45.366Z,14.71
2022-08-29T02:58:50.495Z,14.82
2022-08-29T02:59:52.990Z,14.84
2022-08-29T03:00:56.600Z,14.88
2022-08-29T03:01:59.244Z,14.93
2022-08-29T03:03:02.756Z,14.94
2022-08-29T03:04:05.337Z,14.91
2022-08-29T03:05:07.986Z,14.83
2022-08-29T03:06:10.431Z,14.90
2022-08-29T03:07:12.710Z,14.91
2022-08-29T03:08:15.083Z,14.86
2022-08-29T03:09:17.549Z,14.76
2022-08-29T03:10:20.549Z,14.77
2022-08-29T03:11:23.587Z,14.80
2022-08-29T03:12:25.869Z,14.83
2022-08-29T03:13:30.542Z,14.74
2022-08-29T03:14:32.911Z,14.74
2022-08-29T03:15:35.279Z,14.70
2022-08-29T03:16:37.646Z,14.61
2022-08-29T03:17:40.321Z,14.63
2022-08-29T03:18:42.939Z,14.66
2022-08-29T03:19:45.247Z,14.60
2022-08-29T03:20:48.079Z,14.66
2022-08-29T03:21:52.112Z,14.60
2022-08-29T03:22:54.960Z,14.66
2022-08-29T03:23:57.398Z,14.64
2022-08-29T03:25:03.685Z,14.54
2022-08-29T03:26:06.268Z,14.60
2022-08-29T03:27:08.441Z,14.66
2022-08-29T03:28:10.728Z,14.67
2022-08-29T03:29:13.030Z,14.64
2022-08-29T03:30:16.978Z,14.61
2022-08-29T03:31:19.772Z,14.61
2022-08-29T03:32:22.130Z,14.47
2022-08-29T03:33:24.861Z,14.40
2022-08-29T03:34:28.415Z,14.33
2022-08-29T03:35:31.500Z,14.32
2022-08-29T03:36:34.131Z,14.44
2022-08-29T03:37:36.495Z,14.42
2022-08-29T03:38:39.330Z,14.52
2022-08-29T03:39:41.582Z,14.46
2022-08-29T03:40:43.923Z,14.37
2022-08-29T03:41:46.796Z,14.31
2022-08-29T03:42:49.089Z,14.27
2022-08-29T03:43:51.786Z,14.23
2022-08-29T03:44:54.067Z,14.23
2022-08-29T03:45:56.281Z,14.27
2022-08-29T03:46:58.663Z,14.21
2022-08-29T03:48:00.929Z,14.06
2022-08-29T03:49:23.471Z,14.14
2022-08-29T03:50:25.785Z,14.16
2022-08-29T03:51:29.374Z,14.07
2022-08-29T03:52:31.904Z,14.16
2022-08-29T03:53:34.202Z,14.21
2022-08-29T03:54:38.773Z,14.28
2022-08-29T03:55:41.427Z,14.17
2022-08-29T03:56:43.754Z,14.22
2022-08-29T03:57:46.377Z,14.22
2022-08-29T03:58:52.821Z,14.12
2022-08-29T03:59:56.351Z,14.22
2022-08-29T04:00:59.155Z,14.24
2022-08-29T04:02:01.653Z,14.34
2022-08-29T04:03:04.082Z,14.20
2022-08-29T04:04:06.464Z,14.19
2022-08-29T04:05:09.702Z,14.08
2022-08-29T04:06:12.232Z,14.09
2022-08-29T04:07:14.884Z,14.12
2022-08-29T04:08:17.182Z,14.12
2022-08-29T04:09:19.890Z,14.09
2022-08-29T04:10:32.034Z,13.98
2022-08-29T04:11:34.274Z,14.05
2022-08-29T04:12:37.204Z,14.09
2022-08-29T04:13:39.659Z,14.02
2022-08-29T04:14:42.723Z,13.99
2022-08-29T04:15:45.025Z,13.97
2022-08-29T04:16:51.866Z,13.98
2022-08-29T04:17:57.500Z,13.86
2022-08-29T04:19:00.758Z,13.79
2022-08-29T04:20:05.059Z,13.77
2022-08-29T04:21:09.672Z,13.74
2022-08-29T04:22:13.664Z,13.83
2022-08-29T04:23:16.070Z,13.88
2022-08-29T04:24:19.707Z,13.87
2022-08-29T04:25:25.109Z,13.95
2022-08-29T04:26:36.534Z,14.00
2022-08-29T04:27:39.845Z,14.07
2022-08-29T04:28:42.090Z,14.05
2022-08-29T04:29:48.194Z,14.09
2022-08-29T04:30:52.881Z,14.13
2022-08-29T04:31:55.249Z,14.13
2022-08-29T04:32:57.541Z,14.11
2022-08-29T04:33:59.936Z,14.14
2022-08-29T04:35:02.626Z,14.14
2022-08-29T04:36:06.128Z,14.23
2022-08-29T04:37:08.456Z,14.07
2022-08-29T04:38:10.803Z,13.98
2022-08-29T04:39:14.956Z,13.88
2022-08-29T04:40:20.626Z,13.86
2022-08-29T04:41:22.858Z,13.81
2022-08-29T04:42:25.938Z,13.81
2022-08-29T04:43:28.196Z,13.85
2022-08-29T04:44:30.481Z,13.76
2022-08-29T04:45:33.456Z,13.82
2022-08-29T04:46:35.776Z,13.84
2022-08-29T04:47:39.015Z,13.89
2022-08-29T04:48:41.293Z,14.00
2022-08-29T04:49:44.001Z,14.03
2022-08-29T04:50:52.827Z,13.98
2022-08-29T04:51:55.167Z,14.07
2022-08-29T04:52:57.574Z,14.11
2022-08-29T04:53:59.896Z,14.20
2022-08-29T04:55:02.184Z,14.17
2022-08-29T04:56:07.709Z,14.12
2022-08-29T04:57:10.142Z,14.17
2022-08-29T04:58:13.720Z,14.22
2022-08-29T04:59:17.134Z,14.18
2022-08-29T05:00:23.314Z,14.17
2022-08-29T05:01:27.086Z,14.57
2022-08-29T05:02:30.496Z,15.62
2022-08-29T05:03:33.846Z,16.61
2022-08-29T05:04:36.219Z,17.50
2022-08-29T05:05:38.488Z,18.16
2022-08-29T05:06:41.215Z,18.56
2022-08-29T05:07:45.177Z,19.19
2022-08-29T05:08:47.705Z,19.28
2022-08-29T05:10:07.053Z,19.40
2022-08-29T05:11:22.623Z,19.91
2022-08-29T05:12:26.037Z,20.06
2022-08-29T05:13:28.307Z,20.20
2022-08-29T05:14:30.558Z,20.33
2022-08-29T05:15:32.921Z,20.97
2022-08-29T05:16:37.198Z,21.08
2022-08-29T05:17:39.681Z,21.26
2022-08-29T05:18:44.144Z,21.35
2022-08-29T05:19:46.363Z,21.76
2022-08-29T05:20:48.953Z,21.63
2022-08-29T05:21:57.261Z,22.29
2022-08-29T05:22:59.563Z,22.58
2022-08-29T05:24:02.905Z,22.85
2022-08-29T05:25:06.219Z,23.47
2022-08-29T05:26:08.469Z,23.66
2022-08-29T05:27:14.393Z,23.56
2022-08-29T05:28:16.769Z,23.41
2022-08-29T05:29:20.311Z,23.79
2022-08-29T05:30:34.216Z,23.50
2022-08-29T05:31:41.022Z,23.40
2022-08-29T05:32:43.791Z,23.84
2022-08-29T05:33:46.029Z,23.84
2022-08-29T05:34:49.567Z,23.21
2022-08-29T05:35:51.962Z,23.52
2022-08-29T05:36:54.561Z,23.28
2022-08-29T05:37:56.814Z,23.07
2022-08-29T05:39:00.394Z,23.42
2022-08-29T05:40:03.589Z,24.12
2022-08-29T05:41:07.441Z,24.83
2022-08-29T05:42:12.201Z,24.97
2022-08-29T05:43:14.739Z,25.43
2022-08-29T05:44:17.047Z,25.28
2022-08-29T05:45:19.330Z,24.71
2022-08-29T05:46:21.711Z,24.51
2022-08-29T05:47:24.079Z,24.44
2022-08-29T05:48:26.382Z,24.71
2022-08-29T05:49:28.814Z,24.12
2022-08-29T05:50:31.384Z,24.46
2022-08-29T05:51:38.856Z,24.38
2022-08-29T05:52:41.797Z,24.46
2022-08-29T05:53:44.943Z,24.58
2022-08-29T05:54:47.631Z,24.55
2022-08-29T05:55:49.952Z,24.51
2022-08-29T05:56:52.730Z,25.34
2022-08-29T05:57:55.166Z,25.93
2022-08-29T05:58:57.490Z,25.74
2022-08-29T06:00:00.434Z,26.03
2022-08-29T06:01:02.723Z,25.62
2022-08-29T06:02:07.076Z,26.37
2022-08-29T06:03:11.253Z,25.60
2022-08-29T06:04:13.734Z,26.27
2022-08-29T06:05:16.099Z,26.34
2022-08-29T06:06:21.346Z,26.43
2022-08-29T06:07:25.511Z,26.32
2022-08-29T06:08:27.866Z,26.49
2022-08-29T06:09:30.095Z,26.25
2022-08-29T06:10:32.847Z,26.03
2022-08-29T06:11:35.196Z,26.12
2022-08-29T06:12:37.522Z,26.39
2022-08-29T06:13:39.746Z,26.52
2022-08-29T06:14:42.418Z,27.28
2022-08-29T06:15:53.072Z,27.73
2022-08-29T06:16:55.855Z,27.89
2022-08-29T06:17:58.089Z,28.09
2022-08-29T06:19:00.492Z,27.81
2022-08-29T06:20:04.189Z,27.72
2022-08-29T06:21:06.982Z,27.97
2022-08-29T06:22:10.290Z,27.59
2022-08-29T06:23:12.609Z,27.50
2022-08-29T06:24:16.303Z,27.88
2022-08-29T06:25:40.550Z,26.76
2022-08-29T06:26:40.993Z,25.95
2022-08-29T06:27:43.289Z,24.70
2022-08-29T06:28:46.313Z,23.28
2022-08-29T06:29:48.640Z,24.40
2022-08-29T06:30:53.599Z,24.71
2022-08-29T06:31:56.864Z,25.33
2022-08-29T06:33:00.045Z,24.35
2022-08-29T06:34:04.875Z,24.41
2022-08-29T06:35:07.343Z,25.82
2022-08-29T06:36:11.004Z,25.83
2022-08-29T06:37:13.308Z,24.60
2022-08-29T06:38:15.848Z,22.59
2022-08-29T06:39:19.861Z,21.27
2022-08-29T06:40:22.385Z,19.59
2022-08-29T06:41:25.475Z,19.27
2022-08-29T06:42:27.709Z,18.97
2022-08-29T06:43:31.145Z,18.76
2022-08-29T06:44:33.873Z,18.34
2022-08-29T06:45:41.089Z,18.39
2022-08-29T06:46:47.400Z,18.43
2022-08-29T06:47:49.745Z,18.58
2022-08-29T06:48:53.799Z,18.43
2022-08-29T06:50:17.357Z,18.17
2022-08-29T06:51:20.216Z,17.95
2022-08-29T06:52:22.457Z,18.06
2022-08-29T06:53:32.137Z,17.96
2022-08-29T06:54:35.293Z,17.89
2022-08-29T06:55:38.779Z,17.81
2022-08-29T06:56:42.448Z,17.93
2022-08-29T06:57:45.869Z,17.97
2022-08-29T06:58:48.206Z,17.71
2022-08-29T06:59:50.449Z,17.78
2022-08-29T07:00:52.695Z,17.92
2022-08-29T07:01:55.407Z,18.19
2022-08-29T07:02:58.117Z,18.24
2022-08-29T07:04:01.168Z,18.32
2022-08-29T07:05:04.216Z,18.53
2022-08-29T07:06:07.858Z,18.54
2022-08-29T07:07:10.147Z,18.79
2022-08-29T07:08:12.416Z,18.58
2022-08-29T07:09:14.749Z,18.69
2022-08-29T07:10:22.286Z,18.37
2022-08-29T07:11:26.826Z,18.56
2022-08-29T07:12:29.187Z,18.37
2022-08-29T07:13:37.202Z,18.53
2022-08-29T07:14:39.440Z,18.33
2022-08-29T07:15:42.210Z,18.71
2022-08-29T07:16:44.544Z,18.86
2022-08-29T07:17:47.405Z,19.20
2022-08-29T07:18:49.901Z,18.82
2022-08-29T07:19:53.494Z,19.11
2022-08-29T07:20:55.819Z,18.61
2022-08-29T07:21:59.140Z,18.89
2022-08-29T07:23:01.602Z,18.98
2022-08-29T07:24:04.288Z,18.97
2022-08-29T07:25:07.440Z,18.95
2022-08-29T07:26:12.135Z,19.01
2022-08-29T07:27:14.872Z,19.24
2022-08-29T07:28:17.334Z,19.01
2022-08-29T07:29:22.351Z,18.96
2022-08-29T07:30:25.244Z,19.24
2022-08-29T07:31:31.027Z,19.16
2022-08-29T07:32:33.821Z,19.34
2022-08-29T07:33:36.709Z,19.18
2022-08-29T07:34:39.146Z,19.74
2022-08-29T07:35:41.406Z,19.97
2022-08-29T07:36:43.714Z,19.90
2022-08-29T07:37:50.649Z,19.81
2022-08-29T07:38:53.122Z,19.85
2022-08-29T07:39:55.403Z,20.11
2022-08-29T07:41:03.293Z,19.88
2022-08-29T07:42:05.614Z,20.06
2022-08-29T07:43:07.901Z,19.80
2022-08-29T07:44:11.997Z,19.84
2022-08-29T07:45:14.873Z,20.17
2022-08-29T07:46:20.214Z,20.32
2022-08-29T07:47:26.478Z,20.56
2022-08-29T07:48:28.722Z,20.30
2022-08-29T07:49:41.032Z,20.01
2022-08-29T07:50:44.090Z,19.97
2022-08-29T07:51:46.450Z,20.06
2022-08-29T07:52:48.829Z,20.19
2022-08-29T07:53:52.371Z,20.18
2022-08-29T07:54:56.017Z,20.59
2022-08-29T07:55:58.244Z,20.72
2022-08-29T07:57:00.659Z,20.46
2022-08-29T07:58:04.738Z,20.65
2022-08-29T07:59:07.884Z,21.20
2022-08-29T08:00:12.056Z,21.35
2022-08-29T08:01:20.924Z,20.81
2022-08-29T08:02:24.062Z,21.13
2022-08-29T08:03:27.139Z,20.59
2022-08-29T08:04:29.928Z,20.68
2022-08-29T08:05:32.537Z,20.74
2022-08-29T08:06:36.710Z,21.10
2022-08-29T08:07:40.141Z,21.84
2022-08-29T08:08:42.878Z,22.32
2022-08-29T08:09:45.191Z,22.78
2022-08-29T08:10:51.886Z,22.26
2022-08-29T08:11:54.562Z,21.48
2022-08-29T08:12:56.836Z,21.95
2022-08-29T08:13:59.359Z,22.53
2022-08-29T08:15:03.068Z,22.54
2022-08-29T08:16:07.797Z,21.75
2022-08-29T08:17:10.145Z,21.78
2022-08-29T08:18:12.892Z,21.98
2022-08-29T08:19:15.982Z,21.92
2022-08-29T08:20:20.145Z,21.68
2022-08-29T08:21:24.100Z,21.50
2022-08-29T08:22:26.461Z,21.32
2022-08-29T08:23:28.889Z,21.63
2022-08-29T08:24:31.307Z,21.92
2022-08-29T08:25:33.614Z,21.96
2022-08-29T08:26:36.755Z,21.66
2022-08-29T08:27:43.306Z,21.67
2022-08-29T08:28:47.784Z,21.70
2022-08-29T08:29:50.287Z,22.19
2022-08-29T08:30:53.392Z,22.25
2022-08-29T08:31:59.735Z,22.19
2022-08-29T08:33:02.220Z,21.83
2022-08-29T08:34:04.810Z,21.59
2022-08-29T08:35:07.728Z,21.80
2022-08-29T08:36:29.681Z,21.84
2022-08-29T08:37:32.309Z,22.58
2022-08-29T08:38:34.768Z,22.82
2022-08-29T08:39:38.790Z,22.49
2022-08-29T08:40:53.738Z,23.01
2022-08-29T08:42:04.371Z,22.40
2022-08-29T08:43:08.504Z,22.03
2022-08-29T08:44:26.856Z,22.42
2022-08-29T08:45:41.952Z,22.55
2022-08-29T08:46:47.722Z,22.79
2022-08-29T08:47:58.333Z,23.24
2022-08-29T08:49:03.426Z,23.29
2022-08-29T08:50:11.165Z,22.87
2022-08-29T08:51:25.393Z,22.85
2022-08-29T08:52:39.001Z,22.81
2022-08-29T08:53:44.656Z,22.90
2022-08-29T08:54:54.665Z,22.99
2022-08-29T08:55:59.809Z,22.99
2022-08-29T08:57:11.178Z,22.90
2022-08-29T08:58:27.284Z,22.84
2022-08-29T08:59:35.435Z,22.98
2022-08-29T09:00:56.045Z,22.65
2022-08-29T09:02:11.940Z,22.84
2022-08-29T09:03:40.257Z,23.02
2022-08-29T09:05:00.913Z,24.17
2022-08-29T09:06:27.874Z,24.64
2022-08-29T09:07:53.016Z,24.03
2022-08-29T09:09:14.452Z,23.97
2022-08-29T09:10:31.734Z,23.78
2022-08-29T09:11:36.728Z,23.64
2022-08-29T09:12:39.093Z,23.80
2022-08-29T09:14:03.778Z,23.70
2022-08-29T09:15:18.980Z,24.42
2022-08-29T09:16:29.539Z,23.81
2022-08-29T09:17:43.679Z,23.95
2022-08-29T09:18:52.667Z,24.11
2022-08-29T09:19:57.352Z,24.88
2022-08-29T09:21:06.634Z,25.46
2022-08-29T09:22:19.093Z,25.92
2022-08-29T09:23:39.865Z,25.08
2022-08-29T09:24:51.154Z,24.89
2022-08-29T09:25:53.690Z,25.60
2022-08-29T09:26:56.393Z,26.03
2022-08-29T09:27:59.146Z,25.97
2022-08-29T09:29:01.479Z,25.04
2022-08-29T09:30:20.484Z,25.53
2022-08-29T09:31:35.359Z,24.88
2022-08-29T09:32:52.708Z,25.73
2022-08-29T09:33:58.132Z,25.42
2022-08-29T09:35:09.640Z,24.70
2022-08-29T09:36:15.475Z,24.77
2022-08-29T09:37:29.246Z,25.41
2022-08-29T09:38:31.561Z,25.37
2022-08-29T09:39:34.161Z,25.78
2022-08-29T09:40:45.352Z,25.95
2022-08-29T09:41:57.338Z,26.51
2022-08-29T09:43:03.014Z,25.92
2022-08-29T09:44:06.332Z,24.99
2022-08-29T09:45:29.418Z,25.85
2022-08-29T09:46:31.710Z,25.21
2022-08-29T09:47:34.519Z,25.38
2022-08-29T09:48:40.218Z,25.95
2022-08-29T09:50:02.550Z,25.00
2022-08-29T09:51:37.295Z,24.71
2022-08-29T09:52:52.975Z,25.77
2022-08-29T09:54:32.339Z,26.25
2022-08-29T09:55:45.325Z,25.03
2022-08-29T09:56:52.359Z,24.83
2022-08-29T09:58:06.707Z,25.78
2022-08-29T09:59:25.573Z,26.42
2022-08-29T10:00:40.899Z,25.81
2022-08-29T10:01:43.332Z,25.46
2022-08-29T10:02:49.155Z,25.66
2022-08-29T10:03:56.672Z,26.08
2022-08-29T10:05:06.695Z,26.40
2022-08-29T10:06:20.596Z,26.36
2022-08-29T10:07:29.788Z,26.65
2022-08-29T10:08:35.572Z,26.86
2022-08-29T10:09:38.032Z,26.97
2022-08-29T10:10:52.505Z,27.04
2022-08-29T10:12:03.460Z,26.78
2022-08-29T10:13:19.533Z,26.64
2022-08-29T10:14:38.441Z,26.68
2022-08-29T10:15:51.362Z,26.75
2022-08-29T10:17:19.673Z,26.84
2022-08-29T10:18:43.050Z,27.19
2022-08-29T10:19:45.748Z,27.55
2022-08-29T10:21:13.487Z,27.66
2022-08-29T10:22:35.722Z,26.12
2022-08-29T10:23:51.327Z,25.87
2022-08-29T10:25:12.476Z,26.45
2022-08-29T10:26:54.198Z,26.86
2022-08-29T10:28:19.361Z,27.38
2022-08-29T10:29:21.582Z,26.80
2022-08-29T10:30:29.336Z,26.94
2022-08-29T10:31:45.017Z,26.60
2022-08-29T10:32:56.127Z,27.03
2022-08-29T10:34:08.047Z,26.75
2022-08-29T10:35:27.564Z,27.07
2022-08-29T10:36:36.703Z,27.44
2022-08-29T10:37:51.930Z,27.70
2022-08-29T10:39:02.645Z,27.78
2022-08-29T10:40:24.642Z,26.81
2022-08-29T10:41:32.751Z,27.23
2022-08-29T10:42:38.521Z,27.63
2022-08-29T10:43:44.630Z,28.04
2022-08-29T10:45:14.440Z,28.27
2022-08-29T10:46:39.362Z,28.13
2022-08-29T10:48:24.874Z,26.34
2022-08-29T10:49:59.208Z,27.54
2022-08-29T10:51:02.188Z,27.10
2022-08-29T10:52:28.829Z,26.99
2022-08-29T10:53:36.628Z,26.94
2022-08-29T10:54:59.724Z,27.43
2022-08-29T10:56:20.050Z,27.51
2022-08-29T10:57:37.219Z,27.47
2022-08-29T10:58:54.855Z,27.19
2022-08-29T11:00:07.160Z,27.24
2022-08-29T11:01:30.828Z,26.98
2022-08-29T11:03:05.322Z,27.12
2022-08-29T11:04:31.381Z,27.65
2022-08-29T11:05:40.366Z,27.39
2022-08-29T11:06:57.982Z,27.21
2022-08-29T11:08:16.087Z,27.18
2022-08-29T11:09:25.320Z,26.92
2022-08-29T11:10:39.686Z,27.11
2022-08-29T11:11:56.226Z,26.77
2022-08-29T11:13:06.333Z,26.61
2022-08-29T11:14:19.840Z,26.83
2022-08-29T11:15:28.544Z,27.38
2022-08-29T11:16:37.778Z,27.96
2022-08-29T11:17:44.514Z,28.30
2022-08-29T11:19:13.091Z,28.25
2022-08-29T11:20:21.541Z,27.92
2022-08-29T11:21:35.199Z,27.38
2022-08-29T11:23:08.840Z,26.30
2022-08-29T11:24:14.477Z,25.95
2022-08-29T11:25:20.164Z,25.80
2022-08-29T11:26:22.363Z,26.27
2022-08-29T11:27:36.561Z,26.84
2022-08-29T11:29:14.392Z,27.51
2022-08-29T11:30:26.915Z,27.18
2022-08-29T11:31:50.637Z,26.39
2022-08-29T11:33:25.099Z,26.93
2022-08-29T11:34:38.902Z,26.79
2022-08-29T11:36:04.221Z,26.89
2022-08-29T11:37:36.366Z,27.01
2022-08-29T11:39:18.060Z,27.03
2022-08-29T11:43:50.413Z,27.07
2022-08-29T11:44:55.861Z,26.91
2022-08-29T11:46:04.584Z,26.80
2022-08-29T11:47:44.304Z,27.53
2022-08-29T11:48:49.156Z,27.49
2022-08-29T11:49:52.005Z,26.85
2022-08-29T11:52:12.926Z,27.12
2022-08-29T11:53:21.421Z,27.15
2022-08-29T11:54:24.876Z,27.05
2022-08-29T11:55:34.244Z,27.23
2022-08-29T11:56:36.508Z,26.65
2022-08-29T11:57:46.868Z,26.66
2022-08-29T11:58:51.859Z,27.33
2022-08-29T12:00:01.505Z,27.76
2022-08-29T12:01:34.022Z,26.75
2022-08-29T12:02:36.635Z,26.94
2022-08-29T12:03:38.924Z,27.09
2022-08-29T12:04:58.168Z,26.53
2022-08-29T12:06:21.801Z,26.43
2022-08-29T12:07:38.830Z,27.16
2022-08-29T12:08:52.018Z,27.44
2022-08-29T12:09:57.470Z,27.97
2022-08-29T12:11:00.645Z,28.21
2022-08-29T12:12:03.947Z,28.47
2022-08-29T12:13:06.803Z,28.25
2022-08-29T12:14:09.105Z,28.14
2022-08-29T12:15:52.703Z,28.21
2022-08-29T12:16:55.420Z,28.25
2022-08-29T12:18:07.647Z,27.45
2022-08-29T12:19:09.903Z,28.09
2022-08-29T12:20:16.917Z,28.07
2022-08-29T12:21:31.972Z,27.76
2022-08-29T12:22:59.834Z,27.47
2022-08-29T12:24:24.667Z,27.89
2022-08-29T12:25:32.104Z,28.02
2022-08-29T12:26:44.063Z,27.64
2022-08-29T12:28:02.753Z,27.79
2022-08-29T12:29:10.410Z,27.62
2022-08-29T12:30:14.349Z,27.62
2022-08-29T12:31:56.386Z,28.03
2022-08-29T12:33:28.606Z,27.88
2022-08-29T12:34:49.917Z,28.38
2022-08-29T12:36:07.447Z,28.43
2022-08-29T12:37:28.594Z,27.97
2022-08-29T12:38:41.986Z,27.88
2022-08-29T12:40:14.974Z,27.31
2022-08-29T12:41:32.299Z,27.11
2022-08-29T12:42:45.688Z,26.90
2022-08-29T12:43:54.309Z,27.17
2022-08-29T12:45:12.436Z,27.42
2022-08-29T12:46:26.120Z,27.23
2022-08-29T12:48:09.422Z,27.33
2022-08-29T12:49:30.083Z,27.61
2022-08-29T12:50:36.578Z,27.77
2022-08-29T12:51:41.774Z,28.22
2022-08-29T12:52:57.218Z,27.57
2022-08-29T12:53:59.580Z,27.95
2022-08-29T12:55:41.968Z,27.74
2022-08-29T12:56:49.825Z,27.75
2022-08-29T12:57:52.676Z,27.39
2022-08-29T12:58:58.900Z,27.32
2022-08-29T13:00:05.450Z,28.04
2022-08-29T13:01:30.700Z,27.72
2022-08-29T13:02:36.078Z,27.34
2022-08-29T13:03:38.412Z,27.74
2022-08-29T13:04:43.797Z,27.85
2022-08-29T13:05:47.308Z,27.92
2022-08-29T13:07:16.586Z,28.03
2022-08-29T13:08:32.100Z,28.08
2022-08-29T13:09:38.423Z,27.76
2022-08-29T13:10:54.084Z,27.72
2022-08-29T13:12:16.981Z,27.09
2022-08-29T13:13:21.238Z,27.50
2022-08-29T13:14:23.714Z,27.64
2022-08-29T13:15:32.092Z,27.21
2022-08-29T13:16:35.254Z,27.38
2022-08-29T13:17:44.800Z,27.62
2022-08-29T13:19:00.632Z,28.11
2022-08-29T13:20:43.411Z,28.25
2022-08-29T13:21:45.941Z,27.78
2022-08-29T13:22:48.188Z,28.01
2022-08-29T13:24:03.295Z,27.63
2022-08-29T13:25:06.179Z,27.11
2022-08-29T13:26:11.512Z,27.12
2022-08-29T13:27:21.717Z,27.38
2022-08-29T13:28:26.695Z,27.77
2022-08-29T13:29:41.744Z,27.77
2022-08-29T13:30:48.900Z,27.75
2022-08-29T13:32:22.979Z,27.40
2022-08-29T13:33:35.187Z,27.63
2022-08-29T13:34:38.454Z,27.62
2022-08-29T13:35:40.799Z,27.39
2022-08-29T13:37:00.900Z,27.42
2022-08-29T13:38:23.814Z,27.92
2022-08-29T13:39:29.590Z,28.51
2022-08-29T13:40:55.406Z,28.42
2022-08-29T13:41:57.726Z,28.28
2022-08-29T13:43:01.122Z,27.95
2022-08-29T13:44:03.461Z,27.66
2022-08-29T13:45:10.375Z,27.57
2022-08-29T13:46:14.872Z,27.58
2022-08-29T13:47:28.314Z,27.69
2022-08-29T13:48:30.578Z,27.48
2022-08-29T13:49:35.434Z,27.33
2022-08-29T13:50:38.216Z,27.65
2022-08-29T13:51:40.425Z,27.98
2022-08-29T13:52:42.838Z,27.93
2022-08-29T13:53:45.730Z,27.59
2022-08-29T13:54:48.349Z,27.65
2022-08-29T13:55:51.807Z,27.37
2022-08-29T13:56:57.715Z,27.28
2022-08-29T13:58:00.085Z,27.28
2022-08-29T13:59:02.730Z,27.04
2022-08-29T14:00:07.005Z,27.05
2022-08-29T14:02:31.966Z,27.46
2022-08-29T14:03:34.387Z,28.27
2022-08-29T14:04:39.402Z,27.72
2022-08-29T14:05:43.395Z,27.29
2022-08-29T14:06:45.852Z,27.42
2022-08-29T14:07:48.269Z,27.61
2022-08-29T14:08:51.798Z,27.84
2022-08-29T14:09:54.425Z,27.74
2022-08-29T14:10:56.890Z,27.58
2022-08-29T14:12:00.165Z,27.67
2022-08-29T14:13:03.614Z,27.65
2022-08-29T14:14:05.885Z,28.12
2022-08-29T14:15:10.704Z,28.15
2022-08-29T14:16:13.894Z,28.13
2022-08-29T14:17:18.901Z,28.20
2022-08-29T14:18:21.258Z,27.96
2022-08-29T14:19:25.179Z,27.63
2022-08-29T14:20:27.461Z,27.59
2022-08-29T14:21:30.135Z,27.66
2022-08-29T14:22:32.495Z,27.58
2022-08-29T14:23:34.825Z,27.69
2022-08-29T14:24:37.687Z,28.09
2022-08-29T14:25:40.107Z,28.43
2022-08-29T14:26:43.174Z,28.90
2022-08-29T14:27:47.454Z,28.53
2022-08-29T14:28:49.841Z,28.72
2022-08-29T14:29:53.076Z,28.74
2022-08-29T14:30:55.342Z,28.34
2022-08-29T14:31:58.868Z,28.16